sensor_id;sensor_type;location;lat;lon;timestamp;temperature;humidity
47600;DHT22;33323;52.124;6.018;2022-11-24T00:01:23;7.70;99.90
47600;DHT22;33323;52.124;6.018;2022-11-24T00:04:02;7.80;99.90
47600;DHT22;33323;52.124;6.018;2022-11-24T00:06:32;7.70;99.90
47600;DHT22;33323;52.124;6.018;2022-11-24T00:09:02;7.70;99.90
47600;DHT22;33323;52.124;6.018;2022-11-24T00:11:32;7.70;99.90
47600;DHT22;33323;52.124;6.018;2022-11-24T00:14:01;7.70;99.90
47600;DHT22;33323;52.124;6.018;2022-11-24T00:16:31;7.70;99.90
47600;DHT22;33323;52.124;6.018;2022-11-24T00:19:00;7.70;99.90
47600;DHT22;33323;52.124;6.018;2022-11-24T00:21:29;7.60;99.90
47600;DHT22;33323;52.124;6.018;2022-11-24T00:23:57;7.70;99.90
47600;DHT22;33323;52.124;6.018;2022-11-24T00:26:29;7.70;99.90
47600;DHT22;33323;52.124;6.018;2022-11-24T00:29:00;7.70;99.90
47600;DHT22;33323;52.124;6.018;2022-11-24T00:31:33;7.70;99.90
47600;DHT22;33323;52.124;6.018;2022-11-24T00:34:04;7.70;99.90
47600;DHT22;33323;52.124;6.018;2022-11-24T00:36:34;7.70;99.90
47600;DHT22;33323;52.124;6.018;2022-11-24T00:39:11;7.60;99.90
47600;DHT22;33323;52.124;6.018;2022-11-24T00:41:40;7.50;99.90
47600;DHT22;33323;52.124;6.018;2022-11-24T00:44:08;7.50;99.90
47600;DHT22;33323;52.124;6.018;2022-11-24T00:46:35;7.60;99.90
47600;DHT22;33323;52.124;6.018;2022-11-24T00:49:03;7.60;99.90
47600;DHT22;33323;52.124;6.018;2022-11-24T00:51:30;7.60;99.90
47600;DHT22;33323;52.124;6.018;2022-11-24T00:53:58;7.50;99.90
47600;DHT22;33323;52.124;6.018;2022-11-24T00:56:26;7.60;99.90
47600;DHT22;33323;52.124;6.018;2022-11-24T00:58:54;7.60;99.90
47600;DHT22;33323;52.124;6.018;2022-11-24T01:01:23;7.60;99.90
47600;DHT22;33323;52.124;6.018;2022-11-24T01:03:52;7.50;99.90
47600;DHT22;33323;52.124;6.018;2022-11-24T01:06:23;7.60;99.90
47600;DHT22;33323;52.124;6.018;2022-11-24T01:08:51;7.60;99.90
47600;DHT22;33323;52.124;6.018;2022-11-24T01:11:20;7.60;99.90
47600;DHT22;33323;52.124;6.018;2022-11-24T01:13:51;7.60;99.90
47600;DHT22;33323;52.124;6.018;2022-11-24T01:16:26;7.60;99.90
47600;DHT22;33323;52.124;6.018;2022-11-24T01:18:55;7.60;99.90
47600;DHT22;33323;52.124;6.018;2022-11-24T01:21:23;7.60;99.90
47600;DHT22;33323;52.124;6.018;2022-11-24T01:23:50;7.60;99.90
47600;DHT22;33323;52.124;6.018;2022-11-24T01:26:20;7.70;99.90
47600;DHT22;33323;52.124;6.018;2022-11-24T01:28:52;7.70;99.90
47600;DHT22;33323;52.124;6.018;2022-11-24T01:31:20;7.70;99.90
47600;DHT22;33323;52.124;6.018;2022-11-24T01:33:47;7.80;99.90
47600;DHT22;33323;52.124;6.018;2022-11-24T01:36:15;7.80;99.90
47600;DHT22;33323;52.124;6.018;2022-11-24T01:38:42;7.70;99.90
47600;DHT22;33323;52.124;6.018;2022-11-24T01:41:23;7.70;99.90
47600;DHT22;33323;52.124;6.018;2022-11-24T01:43:51;7.70;99.90
47600;DHT22;33323;52.124;6.018;2022-11-24T01:46:25;7.70;99.90
47600;DHT22;33323;52.124;6.018;2022-11-24T01:49:14;7.70;99.90
47600;DHT22;33323;52.124;6.018;2022-11-24T01:51:52;7.60;99.90
47600;DHT22;33323;52.124;6.018;2022-11-24T01:54:30;7.60;99.90
47600;DHT22;33323;52.124;6.018;2022-11-24T01:57:10;7.60;99.90
47600;DHT22;33323;52.124;6.018;2022-11-24T01:59:41;7.60;99.90
47600;DHT22;33323;52.124;6.018;2022-11-24T02:02:10;7.60;99.90
47600;DHT22;33323;52.124;6.018;2022-11-24T02:04:38;7.60;99.90
47600;DHT22;33323;52.124;6.018;2022-11-24T02:07:06;7.60;99.90
47600;DHT22;33323;52.124;6.018;2022-11-24T02:09:53;7.60;99.90
47600;DHT22;33323;52.124;6.018;2022-11-24T02:12:23;7.50;99.90
47600;DHT22;33323;52.124;6.018;2022-11-24T02:14:53;7.50;99.90
47600;DHT22;33323;52.124;6.018;2022-11-24T02:17:21;7.60;99.90
47600;DHT22;33323;52.124;6.018;2022-11-24T02:19:58;7.70;99.90
47600;DHT22;33323;52.124;6.018;2022-11-24T02:25:58;7.90;99.90
47600;DHT22;33323;52.124;6.018;2022-11-24T02:28:29;7.80;99.90
47600;DHT22;33323;52.124;6.018;2022-11-24T02:30:58;7.80;99.90
47600;DHT22;33323;52.124;6.018;2022-11-24T02:33:26;7.80;99.90
47600;DHT22;33323;52.124;6.018;2022-11-24T02:35:53;7.80;99.90
47600;DHT22;33323;52.124;6.018;2022-11-24T02:38:31;7.70;99.90
47600;DHT22;33323;52.124;6.018;2022-11-24T02:41:02;7.70;99.90
47600;DHT22;33323;52.124;6.018;2022-11-24T02:43:36;7.70;99.90
47600;DHT22;33323;52.124;6.018;2022-11-24T02:46:05;7.60;99.90
47600;DHT22;33323;52.124;6.018;2022-11-24T02:48:32;7.70;99.90
47600;DHT22;33323;52.124;6.018;2022-11-24T02:50:59;7.80;99.90
47600;DHT22;33323;52.124;6.018;2022-11-24T02:53:26;7.80;99.90
47600;DHT22;33323;52.124;6.018;2022-11-24T02:55:53;7.80;99.90
47600;DHT22;33323;52.124;6.018;2022-11-24T02:58:20;7.80;99.90
47600;DHT22;33323;52.124;6.018;2022-11-24T03:00:48;7.80;99.90
47600;DHT22;33323;52.124;6.018;2022-11-24T03:03:23;7.80;99.90
47600;DHT22;33323;52.124;6.018;2022-11-24T03:05:50;7.80;99.90
47600;DHT22;33323;52.124;6.018;2022-11-24T03:08:17;7.70;99.90
47600;DHT22;33323;52.124;6.018;2022-11-24T03:10:44;7.70;99.90
47600;DHT22;33323;52.124;6.018;2022-11-24T03:13:11;7.60;99.90
47600;DHT22;33323;52.124;6.018;2022-11-24T03:15:38;7.60;99.90
47600;DHT22;33323;52.124;6.018;2022-11-24T03:18:05;7.70;99.90
47600;DHT22;33323;52.124;6.018;2022-11-24T03:20:32;7.70;99.90
47600;DHT22;33323;52.124;6.018;2022-11-24T03:22:59;7.60;99.90
47600;DHT22;33323;52.124;6.018;2022-11-24T03:25:26;7.60;99.90
47600;DHT22;33323;52.124;6.018;2022-11-24T03:27:55;7.60;99.90
47600;DHT22;33323;52.124;6.018;2022-11-24T03:30:25;7.60;99.90
47600;DHT22;33323;52.124;6.018;2022-11-24T03:32:53;7.60;99.90
47600;DHT22;33323;52.124;6.018;2022-11-24T03:35:20;7.50;99.90
47600;DHT22;33323;52.124;6.018;2022-11-24T03:37:48;7.60;99.90
47600;DHT22;33323;52.124;6.018;2022-11-24T03:40:15;7.70;99.90
47600;DHT22;33323;52.124;6.018;2022-11-24T03:42:43;7.80;99.90
47600;DHT22;33323;52.124;6.018;2022-11-24T03:45:10;7.70;99.90
47600;DHT22;33323;52.124;6.018;2022-11-24T03:47:58;7.70;99.90
47600;DHT22;33323;52.124;6.018;2022-11-24T03:50:25;7.70;99.90
47600;DHT22;33323;52.124;6.018;2022-11-24T03:52:52;7.80;99.90
47600;DHT22;33323;52.124;6.018;2022-11-24T03:55:19;7.70;99.90
47600;DHT22;33323;52.124;6.018;2022-11-24T03:57:46;7.70;99.90
47600;DHT22;33323;52.124;6.018;2022-11-24T04:00:14;7.80;99.90
47600;DHT22;33323;52.124;6.018;2022-11-24T04:02:43;7.80;99.90
47600;DHT22;33323;52.124;6.018;2022-11-24T04:05:11;7.70;99.90
47600;DHT22;33323;52.124;6.018;2022-11-24T04:07:38;7.70;99.90
47600;DHT22;33323;52.124;6.018;2022-11-24T04:10:05;7.60;99.90
47600;DHT22;33323;52.124;6.018;2022-11-24T04:12:32;7.80;99.90
47600;DHT22;33323;52.124;6.018;2022-11-24T04:15:14;8.10;99.90
47600;DHT22;33323;52.124;6.018;2022-11-24T04:17:43;8.00;99.90
47600;DHT22;33323;52.124;6.018;2022-11-24T04:20:12;7.90;99.90
47600;DHT22;33323;52.124;6.018;2022-11-24T04:22:39;7.90;99.90
47600;DHT22;33323;52.124;6.018;2022-11-24T04:25:06;7.80;99.90
47600;DHT22;33323;52.124;6.018;2022-11-24T04:27:35;7.70;99.90
47600;DHT22;33323;52.124;6.018;2022-11-24T04:30:04;7.70;99.90
47600;DHT22;33323;52.124;6.018;2022-11-24T04:32:32;7.70;99.90
47600;DHT22;33323;52.124;6.018;2022-11-24T04:34:58;7.70;99.90
47600;DHT22;33323;52.124;6.018;2022-11-24T04:37:25;7.70;99.90
47600;DHT22;33323;52.124;6.018;2022-11-24T04:39:52;7.70;99.90
47600;DHT22;33323;52.124;6.018;2022-11-24T04:42:20;7.70;99.90
47600;DHT22;33323;52.124;6.018;2022-11-24T04:44:47;7.70;99.90
47600;DHT22;33323;52.124;6.018;2022-11-24T04:47:17;7.70;99.90
47600;DHT22;33323;52.124;6.018;2022-11-24T04:49:47;7.70;99.90
47600;DHT22;33323;52.124;6.018;2022-11-24T04:52:16;7.70;99.90
47600;DHT22;33323;52.124;6.018;2022-11-24T04:54:43;7.60;99.90
47600;DHT22;33323;52.124;6.018;2022-11-24T04:57:31;7.70;99.90
47600;DHT22;33323;52.124;6.018;2022-11-24T04:59:58;7.70;99.90
47600;DHT22;33323;52.124;6.018;2022-11-24T05:02:24;7.70;99.90
47600;DHT22;33323;52.124;6.018;2022-11-24T05:04:51;7.60;99.90
47600;DHT22;33323;52.124;6.018;2022-11-24T05:07:18;7.60;99.90
47600;DHT22;33323;52.124;6.018;2022-11-24T05:09:46;7.60;99.90
47600;DHT22;33323;52.124;6.018;2022-11-24T05:12:32;7.50;99.90
47600;DHT22;33323;52.124;6.018;2022-11-24T05:15:01;7.60;99.90
47600;DHT22;33323;52.124;6.018;2022-11-24T05:17:32;7.60;99.90
47600;DHT22;33323;52.124;6.018;2022-11-24T05:20:00;8.00;99.90
47600;DHT22;33323;52.124;6.018;2022-11-24T05:22:28;8.00;99.90
47600;DHT22;33323;52.124;6.018;2022-11-24T05:24:55;7.90;99.90
47600;DHT22;33323;52.124;6.018;2022-11-24T05:27:22;7.80;99.90
47600;DHT22;33323;52.124;6.018;2022-11-24T05:29:49;7.80;99.90
47600;DHT22;33323;52.124;6.018;2022-11-24T05:32:16;7.80;99.90
47600;DHT22;33323;52.124;6.018;2022-11-24T05:34:43;7.70;99.90
47600;DHT22;33323;52.124;6.018;2022-11-24T05:37:10;7.80;99.90
47600;DHT22;33323;52.124;6.018;2022-11-24T05:39:37;7.80;99.90
47600;DHT22;33323;52.124;6.018;2022-11-24T05:42:06;7.80;99.90
47600;DHT22;33323;52.124;6.018;2022-11-24T05:44:52;7.90;99.90
47600;DHT22;33323;52.124;6.018;2022-11-24T05:47:19;7.90;99.90
47600;DHT22;33323;52.124;6.018;2022-11-24T05:49:46;7.90;99.90
47600;DHT22;33323;52.124;6.018;2022-11-24T05:52:14;8.00;99.90
47600;DHT22;33323;52.124;6.018;2022-11-24T05:54:42;7.90;99.90
47600;DHT22;33323;52.124;6.018;2022-11-24T05:57:09;7.90;99.90
47600;DHT22;33323;52.124;6.018;2022-11-24T05:59:36;7.90;99.90
47600;DHT22;33323;52.124;6.018;2022-11-24T06:02:02;7.90;99.90
47600;DHT22;33323;52.124;6.018;2022-11-24T06:04:30;8.00;99.90
47600;DHT22;33323;52.124;6.018;2022-11-24T06:06:57;8.00;99.90
47600;DHT22;33323;52.124;6.018;2022-11-24T06:09:24;8.00;99.90
47600;DHT22;33323;52.124;6.018;2022-11-24T06:11:51;7.90;99.90
47600;DHT22;33323;52.124;6.018;2022-11-24T06:14:18;8.00;99.90
47600;DHT22;33323;52.124;6.018;2022-11-24T06:16:45;7.90;99.90
47600;DHT22;33323;52.124;6.018;2022-11-24T06:19:12;7.90;99.90
47600;DHT22;33323;52.124;6.018;2022-11-24T06:21:39;7.90;99.90
47600;DHT22;33323;52.124;6.018;2022-11-24T06:24:06;7.90;99.90
47600;DHT22;33323;52.124;6.018;2022-11-24T06:26:33;7.90;99.90
47600;DHT22;33323;52.124;6.018;2022-11-24T06:29:01;7.90;99.90
47600;DHT22;33323;52.124;6.018;2022-11-24T06:31:27;7.80;99.90
47600;DHT22;33323;52.124;6.018;2022-11-24T06:33:54;7.80;99.90
47600;DHT22;33323;52.124;6.018;2022-11-24T06:36:21;7.70;99.90
47600;DHT22;33323;52.124;6.018;2022-11-24T06:38:48;7.70;99.90
47600;DHT22;33323;52.124;6.018;2022-11-24T06:41:16;7.70;99.90
47600;DHT22;33323;52.124;6.018;2022-11-24T06:43:44;7.70;99.90
47600;DHT22;33323;52.124;6.018;2022-11-24T06:46:12;7.60;99.90
47600;DHT22;33323;52.124;6.018;2022-11-24T06:48:39;7.60;99.90
47600;DHT22;33323;52.124;6.018;2022-11-24T06:51:07;7.60;99.90
47600;DHT22;33323;52.124;6.018;2022-11-24T06:53:39;7.70;99.90
47600;DHT22;33323;52.124;6.018;2022-11-24T06:56:08;7.70;99.90
47600;DHT22;33323;52.124;6.018;2022-11-24T06:58:44;7.70;99.90
47600;DHT22;33323;52.124;6.018;2022-11-24T07:01:17;7.70;99.90
47600;DHT22;33323;52.124;6.018;2022-11-24T07:03:48;7.80;99.90
47600;DHT22;33323;52.124;6.018;2022-11-24T07:06:17;7.70;99.90
47600;DHT22;33323;52.124;6.018;2022-11-24T07:08:45;7.60;99.90
47600;DHT22;33323;52.124;6.018;2022-11-24T07:11:15;7.70;99.90
47600;DHT22;33323;52.124;6.018;2022-11-24T07:13:47;7.70;99.90
47600;DHT22;33323;52.124;6.018;2022-11-24T07:16:26;7.60;99.90
47600;DHT22;33323;52.124;6.018;2022-11-24T07:18:54;7.60;99.90
47600;DHT22;33323;52.124;6.018;2022-11-24T07:21:23;7.60;99.90
47600;DHT22;33323;52.124;6.018;2022-11-24T07:23:53;7.60;99.90
47600;DHT22;33323;52.124;6.018;2022-11-24T07:26:21;7.60;99.90
47600;DHT22;33323;52.124;6.018;2022-11-24T07:28:49;7.60;99.90
47600;DHT22;33323;52.124;6.018;2022-11-24T07:31:21;7.60;99.90
47600;DHT22;33323;52.124;6.018;2022-11-24T07:33:52;7.60;99.90
47600;DHT22;33323;52.124;6.018;2022-11-24T07:36:21;7.60;99.90
47600;DHT22;33323;52.124;6.018;2022-11-24T07:38:48;7.60;99.90
47600;DHT22;33323;52.124;6.018;2022-11-24T07:41:17;7.50;99.90
47600;DHT22;33323;52.124;6.018;2022-11-24T07:43:45;7.50;99.90
47600;DHT22;33323;52.124;6.018;2022-11-24T07:46:16;7.50;99.90
47600;DHT22;33323;52.124;6.018;2022-11-24T07:48:45;7.50;99.90
47600;DHT22;33323;52.124;6.018;2022-11-24T07:51:12;7.50;99.90
47600;DHT22;33323;52.124;6.018;2022-11-24T07:53:39;7.60;99.90
47600;DHT22;33323;52.124;6.018;2022-11-24T07:56:08;7.50;99.90
47600;DHT22;33323;52.124;6.018;2022-11-24T07:58:36;7.60;99.90
47600;DHT22;33323;52.124;6.018;2022-11-24T08:01:14;7.60;99.90
47600;DHT22;33323;52.124;6.018;2022-11-24T08:03:43;7.60;99.90
47600;DHT22;33323;52.124;6.018;2022-11-24T08:06:12;7.60;99.90
47600;DHT22;33323;52.124;6.018;2022-11-24T08:08:59;7.60;99.90
47600;DHT22;33323;52.124;6.018;2022-11-24T08:11:26;7.60;99.90
47600;DHT22;33323;52.124;6.018;2022-11-24T08:13:54;7.70;99.90
47600;DHT22;33323;52.124;6.018;2022-11-24T08:16:21;7.70;99.90
47600;DHT22;33323;52.124;6.018;2022-11-24T08:18:50;7.70;99.90
47600;DHT22;33323;52.124;6.018;2022-11-24T08:21:18;7.80;99.90
47600;DHT22;33323;52.124;6.018;2022-11-24T08:23:46;7.80;99.90
47600;DHT22;33323;52.124;6.018;2022-11-24T08:26:14;7.80;99.90
47600;DHT22;33323;52.124;6.018;2022-11-24T08:28:44;7.80;99.90
47600;DHT22;33323;52.124;6.018;2022-11-24T08:31:15;7.80;99.90
47600;DHT22;33323;52.124;6.018;2022-11-24T08:33:44;7.80;99.90
47600;DHT22;33323;52.124;6.018;2022-11-24T08:36:14;7.70;99.90
47600;DHT22;33323;52.124;6.018;2022-11-24T08:38:42;7.70;99.90
47600;DHT22;33323;52.124;6.018;2022-11-24T08:41:13;7.70;99.90
47600;DHT22;33323;52.124;6.018;2022-11-24T08:43:40;7.80;99.90
47600;DHT22;33323;52.124;6.018;2022-11-24T08:46:13;8.00;99.90
47600;DHT22;33323;52.124;6.018;2022-11-24T08:48:49;8.10;99.90
47600;DHT22;33323;52.124;6.018;2022-11-24T08:51:20;8.20;99.90
47600;DHT22;33323;52.124;6.018;2022-11-24T08:53:56;8.10;99.90
47600;DHT22;33323;52.124;6.018;2022-11-24T08:56:29;8.30;99.90
47600;DHT22;33323;52.124;6.018;2022-11-24T08:58:58;8.30;99.90
47600;DHT22;33323;52.124;6.018;2022-11-24T09:01:26;8.40;99.90
47600;DHT22;33323;52.124;6.018;2022-11-24T09:03:54;8.40;99.90
47600;DHT22;33323;52.124;6.018;2022-11-24T09:06:24;8.30;99.90
47600;DHT22;33323;52.124;6.018;2022-11-24T09:08:53;8.30;99.90
47600;DHT22;33323;52.124;6.018;2022-11-24T09:11:21;8.70;99.90
47600;DHT22;33323;52.124;6.018;2022-11-24T09:13:49;8.80;99.90
47600;DHT22;33323;52.124;6.018;2022-11-24T09:16:19;9.00;99.90
47600;DHT22;33323;52.124;6.018;2022-11-24T09:18:54;8.90;99.90
47600;DHT22;33323;52.124;6.018;2022-11-24T09:21:29;8.80;99.90
47600;DHT22;33323;52.124;6.018;2022-11-24T09:23:58;9.20;99.90
47600;DHT22;33323;52.124;6.018;2022-11-24T09:26:27;9.70;99.90
47600;DHT22;33323;52.124;6.018;2022-11-24T09:28:57;9.80;99.90
47600;DHT22;33323;52.124;6.018;2022-11-24T09:31:28;9.80;99.90
47600;DHT22;33323;52.124;6.018;2022-11-24T09:33:57;10.10;99.90
47600;DHT22;33323;52.124;6.018;2022-11-24T09:36:25;9.80;99.90
47600;DHT22;33323;52.124;6.018;2022-11-24T09:38:52;9.80;99.90
47600;DHT22;33323;52.124;6.018;2022-11-24T09:41:37;9.90;99.90
47600;DHT22;33323;52.124;6.018;2022-11-24T09:47:01;9.70;99.90
47600;DHT22;33323;52.124;6.018;2022-11-24T09:49:41;9.60;99.90
47600;DHT22;33323;52.124;6.018;2022-11-24T09:52:28;10.00;99.90
47600;DHT22;33323;52.124;6.018;2022-11-24T10:01:34;10.40;99.90
47600;DHT22;33323;52.124;6.018;2022-11-24T10:04:08;10.30;99.90
47600;DHT22;33323;52.124;6.018;2022-11-24T10:06:47;10.30;99.90
47600;DHT22;33323;52.124;6.018;2022-11-24T10:24:05;10.60;99.90
47600;DHT22;33323;52.124;6.018;2022-11-24T10:29:46;10.70;99.90
47600;DHT22;33323;52.124;6.018;2022-11-24T10:32:29;10.70;99.90
47600;DHT22;33323;52.124;6.018;2022-11-24T10:35:25;10.70;99.90
47600;DHT22;33323;52.124;6.018;2022-11-24T10:41:19;10.40;99.90
47600;DHT22;33323;52.124;6.018;2022-11-24T10:43:50;10.30;99.90
47600;DHT22;33323;52.124;6.018;2022-11-24T10:46:24;10.30;99.90
47600;DHT22;33323;52.124;6.018;2022-11-24T10:48:59;10.50;99.90
47600;DHT22;33323;52.124;6.018;2022-11-24T10:52:12;10.60;99.90
47600;DHT22;33323;52.124;6.018;2022-11-24T10:54:58;10.70;99.90
47600;DHT22;33323;52.124;6.018;2022-11-24T10:57:34;10.60;99.90
47600;DHT22;33323;52.124;6.018;2022-11-24T11:02:50;10.70;99.90
47600;DHT22;33323;52.124;6.018;2022-11-24T11:05:41;10.80;99.90
47600;DHT22;33323;52.124;6.018;2022-11-24T11:10:47;10.70;99.90
47600;DHT22;33323;52.124;6.018;2022-11-24T11:15:52;10.90;99.90
47600;DHT22;33323;52.124;6.018;2022-11-24T11:18:21;10.70;99.90
47600;DHT22;33323;52.124;6.018;2022-11-24T11:20:54;10.60;99.90
47600;DHT22;33323;52.124;6.018;2022-11-24T11:23:26;10.50;99.90
47600;DHT22;33323;52.124;6.018;2022-11-24T11:26:17;10.70;99.90
47600;DHT22;33323;52.124;6.018;2022-11-24T11:32:01;10.90;99.90
47600;DHT22;33323;52.124;6.018;2022-11-24T11:34:52;10.80;99.90
47600;DHT22;33323;52.124;6.018;2022-11-24T11:37:24;10.70;99.90
47600;DHT22;33323;52.124;6.018;2022-11-24T11:39:54;10.80;99.90
47600;DHT22;33323;52.124;6.018;2022-11-24T11:42:49;10.80;99.90
47600;DHT22;33323;52.124;6.018;2022-11-24T11:45:40;10.90;99.90
47600;DHT22;33323;52.124;6.018;2022-11-24T11:48:33;11.00;99.90
47600;DHT22;33323;52.124;6.018;2022-11-24T11:57:10;10.90;99.90
47600;DHT22;33323;52.124;6.018;2022-11-24T11:59:53;10.80;99.90
47600;DHT22;33323;52.124;6.018;2022-11-24T12:05:36;10.90;99.90
47600;DHT22;33323;52.124;6.018;2022-11-24T12:08:29;10.80;99.90
47600;DHT22;33323;52.124;6.018;2022-11-24T12:11:39;10.90;99.90
47600;DHT22;33323;52.124;6.018;2022-11-24T12:14:11;10.90;99.90
47600;DHT22;33323;52.124;6.018;2022-11-24T12:31:08;11.00;99.90
47600;DHT22;33323;52.124;6.018;2022-11-24T12:39:53;11.20;99.90
47600;DHT22;33323;52.124;6.018;2022-11-24T12:42:34;11.20;99.90
47600;DHT22;33323;52.124;6.018;2022-11-24T12:50:37;11.40;99.90
47600;DHT22;33323;52.124;6.018;2022-11-24T12:53:13;11.30;99.90
47600;DHT22;33323;52.124;6.018;2022-11-24T12:55:43;11.30;99.90
47600;DHT22;33323;52.124;6.018;2022-11-24T12:58:31;11.20;99.90
47600;DHT22;33323;52.124;6.018;2022-11-24T13:01:30;11.30;99.90
47600;DHT22;33323;52.124;6.018;2022-11-24T13:07:10;11.30;99.90
47600;DHT22;33323;52.124;6.018;2022-11-24T13:13:11;11.30;99.90
47600;DHT22;33323;52.124;6.018;2022-11-24T13:18:57;11.00;99.90
47600;DHT22;33323;52.124;6.018;2022-11-24T13:26:51;10.60;99.90
47600;DHT22;33323;52.124;6.018;2022-11-24T13:37:19;10.70;99.90
47600;DHT22;33323;52.124;6.018;2022-11-24T13:53:21;10.70;99.90
47600;DHT22;33323;52.124;6.018;2022-11-24T13:55:59;10.60;99.90
47600;DHT22;33323;52.124;6.018;2022-11-24T13:58:43;10.50;99.90
47600;DHT22;33323;52.124;6.018;2022-11-24T14:01:26;10.50;99.90
47600;DHT22;33323;52.124;6.018;2022-11-24T14:07:04;10.50;99.90
47600;DHT22;33323;52.124;6.018;2022-11-24T14:09:47;10.50;99.90
47600;DHT22;33323;52.124;6.018;2022-11-24T14:12:18;10.50;99.90
47600;DHT22;33323;52.124;6.018;2022-11-24T14:14:48;10.50;99.90
47600;DHT22;33323;52.124;6.018;2022-11-24T14:17:21;10.50;99.90
47600;DHT22;33323;52.124;6.018;2022-11-24T14:19:51;10.40;99.90
47600;DHT22;33323;52.124;6.018;2022-11-24T14:22:20;10.40;99.90
47600;DHT22;33323;52.124;6.018;2022-11-24T14:25:28;10.30;99.90
47600;DHT22;33323;52.124;6.018;2022-11-24T14:27:56;10.30;99.90
47600;DHT22;33323;52.124;6.018;2022-11-24T14:30:25;10.20;99.90
47600;DHT22;33323;52.124;6.018;2022-11-24T14:32:57;10.30;99.90
47600;DHT22;33323;52.124;6.018;2022-11-24T14:35:27;10.30;99.90
47600;DHT22;33323;52.124;6.018;2022-11-24T14:37:55;10.20;99.90
47600;DHT22;33323;52.124;6.018;2022-11-24T14:41:11;10.20;99.90
47600;DHT22;33323;52.124;6.018;2022-11-24T14:43:39;10.10;99.90
47600;DHT22;33323;52.124;6.018;2022-11-24T14:46:17;10.10;99.90
47600;DHT22;33323;52.124;6.018;2022-11-24T14:48:47;10.00;99.90
47600;DHT22;33323;52.124;6.018;2022-11-24T14:51:20;9.90;99.90
47600;DHT22;33323;52.124;6.018;2022-11-24T14:53:57;9.80;99.90
47600;DHT22;33323;52.124;6.018;2022-11-24T14:56:26;9.80;99.90
47600;DHT22;33323;52.124;6.018;2022-11-24T14:58:56;9.70;99.90
47600;DHT22;33323;52.124;6.018;2022-11-24T15:04:15;9.50;99.90
47600;DHT22;33323;52.124;6.018;2022-11-24T15:07:26;9.40;99.90
47600;DHT22;33323;52.124;6.018;2022-11-24T15:10:03;9.30;99.90
47600;DHT22;33323;52.124;6.018;2022-11-24T15:12:36;9.20;99.90
47600;DHT22;33323;52.124;6.018;2022-11-24T15:17:48;9.20;99.90
47600;DHT22;33323;52.124;6.018;2022-11-24T15:20:33;9.10;99.90
47600;DHT22;33323;52.124;6.018;2022-11-24T15:23:28;9.00;99.90
47600;DHT22;33323;52.124;6.018;2022-11-24T15:25:57;9.00;99.90
47600;DHT22;33323;52.124;6.018;2022-11-24T15:28:24;8.90;99.90
47600;DHT22;33323;52.124;6.018;2022-11-24T15:31:01;8.80;99.90
47600;DHT22;33323;52.124;6.018;2022-11-24T15:33:30;8.70;99.90
47600;DHT22;33323;52.124;6.018;2022-11-24T15:36:01;8.70;99.90
47600;DHT22;33323;52.124;6.018;2022-11-24T15:38:28;8.60;99.90
47600;DHT22;33323;52.124;6.018;2022-11-24T15:40:58;8.50;99.90
47600;DHT22;33323;52.124;6.018;2022-11-24T15:43:39;8.50;99.90
47600;DHT22;33323;52.124;6.018;2022-11-24T15:46:07;8.50;99.90
47600;DHT22;33323;52.124;6.018;2022-11-24T15:48:34;8.50;99.90
47600;DHT22;33323;52.124;6.018;2022-11-24T15:51:04;8.30;99.90
47600;DHT22;33323;52.124;6.018;2022-11-24T15:53:39;8.30;99.90
47600;DHT22;33323;52.124;6.018;2022-11-24T15:56:17;8.30;99.90
47600;DHT22;33323;52.124;6.018;2022-11-24T15:58:48;8.30;99.90
47600;DHT22;33323;52.124;6.018;2022-11-24T16:01:15;8.30;99.90
47600;DHT22;33323;52.124;6.018;2022-11-24T16:03:42;8.20;99.90
47600;DHT22;33323;52.124;6.018;2022-11-24T16:06:16;8.20;99.90
47600;DHT22;33323;52.124;6.018;2022-11-24T16:08:51;8.10;99.90
47600;DHT22;33323;52.124;6.018;2022-11-24T16:11:20;8.10;99.90
47600;DHT22;33323;52.124;6.018;2022-11-24T16:13:47;8.10;99.90
47600;DHT22;33323;52.124;6.018;2022-11-24T16:16:20;8.10;99.90
47600;DHT22;33323;52.124;6.018;2022-11-24T16:18:48;8.10;99.90
47600;DHT22;33323;52.124;6.018;2022-11-24T16:21:16;8.10;99.90
47600;DHT22;33323;52.124;6.018;2022-11-24T16:23:43;8.10;99.90
47600;DHT22;33323;52.124;6.018;2022-11-24T16:26:11;8.20;99.90
47600;DHT22;33323;52.124;6.018;2022-11-24T16:28:38;8.10;99.90
47600;DHT22;33323;52.124;6.018;2022-11-24T16:31:05;8.10;99.90
47600;DHT22;33323;52.124;6.018;2022-11-24T16:33:32;8.00;99.90
47600;DHT22;33323;52.124;6.018;2022-11-24T16:35:59;7.90;99.90
47600;DHT22;33323;52.124;6.018;2022-11-24T16:38:25;7.90;99.90
47600;DHT22;33323;52.124;6.018;2022-11-24T16:40:53;7.90;99.90
47600;DHT22;33323;52.124;6.018;2022-11-24T16:43:22;7.90;99.90
47600;DHT22;33323;52.124;6.018;2022-11-24T16:48:42;7.90;99.90
47600;DHT22;33323;52.124;6.018;2022-11-24T16:51:11;7.90;99.90
47600;DHT22;33323;52.124;6.018;2022-11-24T16:53:39;8.00;99.90
47600;DHT22;33323;52.124;6.018;2022-11-24T16:56:06;7.90;99.90
47600;DHT22;33323;52.124;6.018;2022-11-24T16:58:37;7.90;99.90
47600;DHT22;33323;52.124;6.018;2022-11-24T17:01:05;7.90;99.90
47600;DHT22;33323;52.124;6.018;2022-11-24T17:03:34;8.00;99.90
47600;DHT22;33323;52.124;6.018;2022-11-24T17:06:06;8.00;99.90
47600;DHT22;33323;52.124;6.018;2022-11-24T17:08:35;8.00;99.90
47600;DHT22;33323;52.124;6.018;2022-11-24T17:11:08;8.00;99.90
47600;DHT22;33323;52.124;6.018;2022-11-24T17:13:37;8.10;99.90
47600;DHT22;33323;52.124;6.018;2022-11-24T17:16:06;8.10;99.90
47600;DHT22;33323;52.124;6.018;2022-11-24T17:18:35;8.20;99.90
47600;DHT22;33323;52.124;6.018;2022-11-24T17:21:02;8.20;99.90
47600;DHT22;33323;52.124;6.018;2022-11-24T17:23:35;8.30;99.90
47600;DHT22;33323;52.124;6.018;2022-11-24T17:26:04;8.30;99.90
47600;DHT22;33323;52.124;6.018;2022-11-24T17:28:36;8.30;99.90
47600;DHT22;33323;52.124;6.018;2022-11-24T17:31:17;8.20;99.90
47600;DHT22;33323;52.124;6.018;2022-11-24T17:33:54;8.20;99.90
47600;DHT22;33323;52.124;6.018;2022-11-24T17:36:22;8.10;99.90
47600;DHT22;33323;52.124;6.018;2022-11-24T17:38:49;8.10;99.90
47600;DHT22;33323;52.124;6.018;2022-11-24T17:41:17;8.10;99.90
47600;DHT22;33323;52.124;6.018;2022-11-24T17:43:49;8.10;99.90
47600;DHT22;33323;52.124;6.018;2022-11-24T17:46:16;8.00;99.90
47600;DHT22;33323;52.124;6.018;2022-11-24T17:48:44;8.00;99.90
47600;DHT22;33323;52.124;6.018;2022-11-24T17:51:14;8.00;99.90
47600;DHT22;33323;52.124;6.018;2022-11-24T17:54:01;8.00;99.90
47600;DHT22;33323;52.124;6.018;2022-11-24T17:56:48;8.10;99.90
47600;DHT22;33323;52.124;6.018;2022-11-24T17:59:15;8.10;99.90
47600;DHT22;33323;52.124;6.018;2022-11-24T18:01:42;8.20;99.90
47600;DHT22;33323;52.124;6.018;2022-11-24T18:04:09;8.20;99.90
47600;DHT22;33323;52.124;6.018;2022-11-24T18:06:37;8.30;99.90
47600;DHT22;33323;52.124;6.018;2022-11-24T18:09:04;8.30;99.90
47600;DHT22;33323;52.124;6.018;2022-11-24T18:11:31;8.30;99.90
47600;DHT22;33323;52.124;6.018;2022-11-24T18:14:01;8.30;99.90
47600;DHT22;33323;52.124;6.018;2022-11-24T18:16:31;8.30;99.90
47600;DHT22;33323;52.124;6.018;2022-11-24T18:19:02;8.30;99.90